Time;durP1;ratioP1;P1;durP2;ratioP2;P2;SDS_P1;SDS_P2;PMS_P1;PMS_P2;Temp;Humidity;BMP_temperature;BMP_pressure;BME280_temperature;BME280_humidity;BME280_pressure;Samples;Min_cycle;Max_cycle;Signal;HPM_P1;HPM_P2
2022/10/15 00:03:06;;;;;;;2.90;1.00;;;;;;;;;;10391356;28;19960;-76
2022/10/15 00:08:11;;;;;;;3.20;0.97;;;;;;;;;;10384829;28;20077;-74
2022/10/15 00:13:15;;;;;;;1.75;1.20;;;;;;;;;;10402646;28;20050;-76
2022/10/15 00:18:17;;;;;;;3.27;1.27;;;;;;;;;;10389120;28;20056;-76
2022/10/15 00:23:22;;;;;;;1.13;0.90;;;;;;;;;;10389945;28;20120;-74
2022/10/15 00:28:25;;;;;;;1.40;0.90;;;;;;;;;;10380981;28;20128;-75
2022/10/15 00:33:33;;;;;;;3.13;1.50;;;;;;;;;;10387617;28;20037;-74
2022/10/15 00:38:40;;;;;;;3.63;1.30;;;;;;;;;;10387690;28;20526;-75
2022/10/15 00:43:44;;;;;;;1.27;1.05;;;;;;;;;;10387951;28;20050;-74
2022/10/15 00:48:47;;;;;;;;;;;;;;;;;;10398973;28;20052;-74
2022/10/15 00:53:52;;;;;;;2.40;1.10;;;;;;;;;;10397453;28;20083;-74
2022/10/15 00:58:55;;;;;;;5.78;1.70;;;;;;;;;;10387531;28;20583;-75
2022/10/15 01:03:59;;;;;;;1.30;1.00;;;;;;;;;;10386535;28;20043;-76
2022/10/15 01:09:04;;;;;;;3.38;1.38;;;;;;;;;;10400227;28;20132;-75
2022/10/15 01:14:11;;;;;;;6.28;1.63;;;;;;;;;;10392494;28;20112;-74
2022/10/15 01:19:26;;;;;;;4.20;1.05;;;;;;;;;;10394422;28;20052;-75
2022/10/15 01:24:42;;;;;;;1.45;1.02;;;;;;;;;;10391677;28;20140;-73
2022/10/15 01:29:58;;;;;;;4.38;1.50;;;;;;;;;;10394551;28;20047;-75
2022/10/15 01:35:06;;;;;;;2.65;1.13;;;;;;;;;;10399264;28;20076;-75
2022/10/15 01:40:13;;;;;;;3.28;1.65;;;;;;;;;;10393847;28;20046;-75
2022/10/15 01:45:18;;;;;;;1.40;0.82;;;;;;;;;;10393461;28;20535;-77
2022/10/15 01:50:24;;;;;;;5.07;1.70;;;;;;;;;;10399009;28;20550;-75
2022/10/15 01:55:27;;;;;;;3.97;1.40;;;;;;;;;;10392939;28;20068;-75
2022/10/15 02:00:31;;;;;;;0.73;0.70;;;;;;;;;;10397679;28;20126;-75
2022/10/15 02:05:38;;;;;;;1.75;1.00;;;;;;;;;;10393029;28;20494;-76
2022/10/15 02:10:43;;;;;;;1.80;1.00;;;;;;;;;;10387352;28;20076;-76
2022/10/15 02:15:53;;;;;;;3.30;1.13;;;;;;;;;;10396250;28;20487;-76
2022/10/15 02:20:58;;;;;;;5.35;1.70;;;;;;;;;;10398500;28;20123;-76
2022/10/15 02:26:04;;;;;;;3.42;1.20;;;;;;;;;;10397824;28;20037;-76
2022/10/15 02:31:08;;;;;;;1.60;1.05;;;;;;;;;;10398466;28;20124;-76
2022/10/15 02:36:12;;;;;;;4.97;1.23;;;;;;;;;;10406061;28;20041;-76
2022/10/15 02:41:16;;;;;;;4.32;1.70;;;;;;;;;;10399630;28;20048;-76
2022/10/15 02:46:19;;;;;;;4.22;1.60;;;;;;;;;;10389575;28;20493;-76
2022/10/15 02:51:24;;;;;;;2.97;1.30;;;;;;;;;;10387503;28;20046;-75
2022/10/15 02:56:26;;;;;;;4.88;1.17;;;;;;;;;;10389292;28;20131;-75
2022/10/15 03:01:29;;;;;;;1.35;1.00;;;;;;;;;;10397056;28;20121;-75
2022/10/15 03:06:33;;;;;;;1.77;1.10;;;;;;;;;;10384233;28;20052;-75
2022/10/15 03:11:37;;;;;;;4.22;0.50;;;;;;;;;;10396191;28;20057;-77
2022/10/15 03:16:40;;;;;;;;;;;;;;;;;;10396695;28;20490;-76
2022/10/15 03:21:44;;;;;;;1.08;0.80;;;;;;;;;;10392253;28;19932;-75
2022/10/15 03:26:47;;;;;;;2.83;0.80;;;;;;;;;;10385914;28;20064;-75
2022/10/15 03:31:50;;;;;;;1.85;0.82;;;;;;;;;;10382590;28;20499;-75
2022/10/15 03:36:55;;;;;;;0.73;0.63;;;;;;;;;;10394862;28;20061;-75
2022/10/15 03:41:58;;;;;;;1.90;0.90;;;;;;;;;;10394795;28;20034;-76
2022/10/15 03:47:01;;;;;;;1.00;0.63;;;;;;;;;;10389902;28;20462;-75
2022/10/15 03:52:05;;;;;;;1.25;0.50;;;;;;;;;;10396248;28;20042;-77
2022/10/15 03:57:08;;;;;;;0.60;0.35;;;;;;;;;;10389616;28;20056;-76
2022/10/15 04:02:11;;;;;;;0.70;0.52;;;;;;;;;;10397416;28;20038;-75
2022/10/15 04:07:15;;;;;;;1.58;0.82;;;;;;;;;;10392210;28;20441;-76
2022/10/15 04:12:18;;;;;;;3.22;1.10;;;;;;;;;;10391140;28;20046;-77
2022/10/15 04:17:21;;;;;;;0.57;0.57;;;;;;;;;;10387859;28;20045;-76
2022/10/15 04:22:26;;;;;;;0.23;0.10;;;;;;;;;;10393074;28;20080;-75
2022/10/15 04:27:29;;;;;;;2.78;1.00;;;;;;;;;;10400197;28;20050;-75
2022/10/15 04:32:31;;;;;;;0.60;0.50;;;;;;;;;;10401284;28;20026;-75
2022/10/15 04:37:36;;;;;;;1.00;0.70;;;;;;;;;;10389903;28;20056;-74
2022/10/15 04:42:39;;;;;;;1.05;0.70;;;;;;;;;;10388176;28;20041;-76
2022/10/15 04:47:42;;;;;;;1.83;0.90;;;;;;;;;;10393026;28;20409;-75
2022/10/15 04:52:47;;;;;;;2.13;0.65;;;;;;;;;;10400425;28;20041;-76
2022/10/15 04:57:51;;;;;;;0.55;0.38;;;;;;;;;;10401567;28;20048;-76
2022/10/15 05:02:54;;;;;;;1.80;0.77;;;;;;;;;;10394910;28;20034;-75
2022/10/15 05:08:00;;;;;;;1.05;0.70;;;;;;;;;;10396128;28;20042;-77
2022/10/15 05:13:04;;;;;;;0.77;0.45;;;;;;;;;;10414890;28;20046;-76
2022/10/15 05:18:07;;;;;;;1.23;0.70;;;;;;;;;;10399223;28;20041;-76
2022/10/15 05:23:11;;;;;;;1.17;0.90;;;;;;;;;;10398391;28;20487;-76
2022/10/15 05:28:14;;;;;;;2.35;0.60;;;;;;;;;;10395950;28;20041;-77
2022/10/15 05:33:17;;;;;;;0.60;0.50;;;;;;;;;;10389325;28;20471;-77
2022/10/15 05:38:22;;;;;;;1.23;0.90;;;;;;;;;;10391340;28;20176;-76
2022/10/15 05:43:25;;;;;;;0.43;0.43;;;;;;;;;;10397707;28;20453;-75
2022/10/15 05:48:28;;;;;;;0.25;0.25;;;;;;;;;;10395650;28;20046;-76
2022/10/15 05:53:32;;;;;;;1.10;0.80;;;;;;;;;;10385574;28;20060;-76
2022/10/15 05:58:36;;;;;;;0.60;0.43;;;;;;;;;;10391563;28;20300;-75
2022/10/15 06:03:39;;;;;;;;;;;;;;;;;;10395022;28;20046;-76
2022/10/15 06:08:43;;;;;;;0.60;0.60;;;;;;;;;;10395602;28;20307;-76
2022/10/15 06:13:46;;;;;;;1.15;0.50;;;;;;;;;;10399101;28;20037;-75
2022/10/15 06:18:49;;;;;;;2.88;0.85;;;;;;;;;;10404942;28;20049;-76
2022/10/15 06:23:53;;;;;;;0.73;0.50;;;;;;;;;;10396926;28;20033;-75
2022/10/15 06:28:57;;;;;;;;;;;;;;;;;;10392448;28;20033;-76
2022/10/15 06:34:00;;;;;;;0.35;0.20;;;;;;;;;;10396335;28;20036;-76
2022/10/15 06:39:04;;;;;;;0.85;0.80;;;;;;;;;;10402074;28;20411;-78
2022/10/15 06:44:06;;;;;;;0.52;0.52;;;;;;;;;;10383846;28;20030;-77
2022/10/15 06:49:10;;;;;;;1.00;0.57;;;;;;;;;;10386592;28;20423;-77
2022/10/15 06:54:14;;;;;;;0.80;0.68;;;;;;;;;;10389124;28;20033;-77
2022/10/15 06:59:17;;;;;;;0.68;0.60;;;;;;;;;;10397041;28;20041;-78
2022/10/15 07:04:20;;;;;;;0.67;0.53;;;;;;;;;;10382475;28;20064;-77
2022/10/15 07:09:24;;;;;;;1.85;0.90;;;;;;;;;;10381072;28;20053;-77
2022/10/15 07:14:37;;;;;;;0.60;0.60;;;;;;;;;;10375325;28;20045;-75
2022/10/15 07:19:44;;;;;;;1.05;0.60;;;;;;;;;;10368812;28;20057;-76
2022/10/15 07:24:47;;;;;;;0.70;0.60;;;;;;;;;;10376762;28;20131;-76
2022/10/15 07:29:50;;;;;;;0.32;0.30;;;;;;;;;;10384484;28;20057;-76
2022/10/15 07:35:03;;;;;;;0.70;0.70;;;;;;;;;;10383950;28;20124;-76
2022/10/15 07:40:18;;;;;;;2.47;0.30;;;;;;;;;;10376834;28;20088;-77
2022/10/15 07:45:31;;;;;;;2.38;0.30;;;;;;;;;;10386479;28;20403;-77
2022/10/15 07:50:34;;;;;;;2.22;0.43;;;;;;;;;;10386606;28;20471;-76
2022/10/15 07:55:41;;;;;;;0.50;0.43;;;;;;;;;;10387646;28;20510;-78
2022/10/15 08:00:54;;;;;;;;;;;;;;;;;;10397379;28;20038;-77
2022/10/15 08:06:07;;;;;;;0.32;0.32;;;;;;;;;;10384865;28;20007;-76
2022/10/15 08:11:22;;;;;;;1.48;0.90;;;;;;;;;;10412855;28;20369;-77
2022/10/15 08:16:34;;;;;;;;;;;;;;;;;;10424122;28;20273;-76
2022/10/15 08:21:37;;;;;;;1.65;0.60;;;;;;;;;;10420373;28;19928;-76
2022/10/15 08:26:53;;;;;;;0.73;0.50;;;;;;;;;;10422455;28;20059;-76
2022/10/15 08:32:06;;;;;;;0.40;0.40;;;;;;;;;;10423620;28;20047;-76
2022/10/15 08:37:19;;;;;;;0.85;0.38;;;;;;;;;;10416077;28;20059;-76
2022/10/15 08:42:35;;;;;;;1.55;0.57;;;;;;;;;;10417664;28;20302;-77
2022/10/15 08:47:51;;;;;;;0.47;0.32;;;;;;;;;;10418168;28;20051;-77
2022/10/15 08:53:03;;;;;;;0.65;0.40;;;;;;;;;;10402180;28;20048;-76
2022/10/15 08:58:12;;;;;;;1.53;0.50;;;;;;;;;;10423616;28;20045;-76
2022/10/15 09:03:31;;;;;;;2.47;0.47;;;;;;;;;;10410014;28;20065;-77
2022/10/15 09:08:43;;;;;;;0.70;0.40;;;;;;;;;;10427893;28;20091;-78
2022/10/15 09:13:48;;;;;;;1.75;0.50;;;;;;;;;;10435754;28;20033;-77
2022/10/15 09:18:51;;;;;;;0.65;0.43;;;;;;;;;;10432483;28;20064;-77
2022/10/15 09:23:56;;;;;;;0.63;0.50;;;;;;;;;;10427130;28;20037;-76
2022/10/15 09:29:15;;;;;;;0.93;0.60;;;;;;;;;;10423868;28;20120;-76
2022/10/15 09:34:31;;;;;;;1.20;0.60;;;;;;;;;;10414299;28;20560;-76
2022/10/15 09:39:50;;;;;;;2.80;0.77;;;;;;;;;;10422950;28;20056;-77
2022/10/15 09:45:02;;;;;;;0.90;0.70;;;;;;;;;;10432740;28;20033;-76
2022/10/15 09:50:06;;;;;;;1.10;0.57;;;;;;;;;;10408799;28;20438;-78
2022/10/15 09:55:15;;;;;;;0.82;0.80;;;;;;;;;;10436336;28;20044;-79
2022/10/15 10:00:20;;;;;;;0.88;0.88;;;;;;;;;;10421704;28;20064;-76
2022/10/15 10:05:28;;;;;;;1.52;1.42;;;;;;;;;;10411162;28;20087;-75
2022/10/15 10:10:31;;;;;;;1.90;0.90;;;;;;;;;;10425391;28;20044;-75
2022/10/15 10:15:36;;;;;;;0.65;0.60;;;;;;;;;;10427992;28;20041;-76
2022/10/15 10:20:51;;;;;;;12.20;5.47;;;;;;;;;;10439136;28;20131;-76
2022/10/15 10:25:58;;;;;;;1.35;0.95;;;;;;;;;;10438701;28;20048;-76
2022/10/15 10:31:07;;;;;;;1.25;0.80;;;;;;;;;;10418570;28;20049;-76
2022/10/15 10:36:19;;;;;;;1.55;0.90;;;;;;;;;;10422110;28;20056;-77
2022/10/15 10:41:21;;;;;;;2.50;1.40;;;;;;;;;;10425881;28;20041;-77
2022/10/15 10:46:26;;;;;;;1.23;1.23;;;;;;;;;;10426787;28;20052;-76
2022/10/15 10:51:29;;;;;;;0.73;0.73;;;;;;;;;;10427940;28;20429;-77
2022/10/15 10:56:34;;;;;;;0.63;0.60;;;;;;;;;;10427422;28;20076;-77
2022/10/15 11:01:38;;;;;;;0.40;0.40;;;;;;;;;;10426940;28;20130;-78
2022/10/15 11:06:50;;;;;;;0.80;0.80;;;;;;;;;;10429264;28;20417;-78
2022/10/15 11:12:01;;;;;;;1.27;0.88;;;;;;;;;;10433657;28;20555;-77
2022/10/15 11:17:10;;;;;;;1.17;0.80;;;;;;;;;;10422120;28;20041;-76
2022/10/15 11:22:20;;;;;;;4.10;0.80;;;;;;;;;;10408352;28;20378;-77
2022/10/15 11:27:33;;;;;;;1.77;0.60;;;;;;;;;;10429262;28;20041;-77
2022/10/15 11:32:42;;;;;;;0.82;0.65;;;;;;;;;;10428560;28;20052;-77
2022/10/15 11:38:12;;;;;;;0.77;0.60;;;;;;;;;;10426451;28;20048;-77
2022/10/15 11:43:19;;;;;;;1.48;0.60;;;;;;;;;;10427484;28;20115;-77
2022/10/15 11:48:40;;;;;;;0.82;0.55;;;;;;;;;;10427376;28;20038;-76
2022/10/15 11:53:52;;;;;;;0.73;0.73;;;;;;;;;;10416482;28;20504;-76
2022/10/15 11:58:57;;;;;;;1.40;0.70;;;;;;;;;;10408922;28;20041;-76
2022/10/15 12:04:10;;;;;;;1.88;0.70;;;;;;;;;;10422486;28;20440;-75
2022/10/15 12:09:15;;;;;;;0.85;0.60;;;;;;;;;;10428895;28;20452;-76
2022/10/15 12:14:22;;;;;;;1.63;0.68;;;;;;;;;;10420963;28;20040;-76
2022/10/15 12:19:28;;;;;;;1.83;0.80;;;;;;;;;;10423846;28;20041;-76
2022/10/15 12:24:52;;;;;;;0.65;0.65;;;;;;;;;;10426222;28;20483;-75
2022/10/15 12:30:10;;;;;;;0.70;0.70;;;;;;;;;;10425495;28;20053;-75
2022/10/15 12:35:28;;;;;;;1.90;1.40;;;;;;;;;;10402582;28;20060;-76
2022/10/15 12:40:32;;;;;;;0.90;0.90;;;;;;;;;;10420347;28;20561;-76
2022/10/15 12:45:36;;;;;;;1.25;0.80;;;;;;;;;;10432540;28;20061;-77
2022/10/15 12:50:44;;;;;;;2.40;1.40;;;;;;;;;;10432366;28;20036;-77
2022/10/15 12:56:07;;;;;;;1.45;1.35;;;;;;;;;;10431952;28;20029;-77
2022/10/15 13:01:25;;;;;;;1.42;1.33;;;;;;;;;;10432699;28;20142;-76
2022/10/15 13:06:33;;;;;;;1.20;1.20;;;;;;;;;;10430117;28;20118;-77
2022/10/15 13:11:37;;;;;;;1.30;1.20;;;;;;;;;;10433119;28;20148;-77
2022/10/15 13:16:42;;;;;;;1.30;0.70;;;;;;;;;;10438958;28;20126;-76
2022/10/15 13:21:50;;;;;;;1.15;0.93;;;;;;;;;;10425703;28;20041;-77
2022/10/15 13:26:55;;;;;;;1.75;1.48;;;;;;;;;;10425752;28;20095;-76
2022/10/15 13:31:59;;;;;;;1.13;1.13;;;;;;;;;;10426393;28;20411;-77
2022/10/15 13:37:04;;;;;;;2.88;1.30;;;;;;;;;;10426213;28;20044;-77
2022/10/15 13:42:08;;;;;;;2.35;0.75;;;;;;;;;;10427067;28;20059;-76
2022/10/15 13:47:23;;;;;;;1.25;0.80;;;;;;;;;;10428940;28;20642;-77
2022/10/15 13:52:27;;;;;;;1.10;0.98;;;;;;;;;;10433472;28;20055;-76
2022/10/15 13:57:30;;;;;;;1.55;0.80;;;;;;;;;;10434130;28;20230;-76
2022/10/15 14:02:32;;;;;;;3.40;1.15;;;;;;;;;;10430626;28;20124;-76
2022/10/15 14:07:36;;;;;;;1.58;1.20;;;;;;;;;;10430456;28;20040;-76
2022/10/15 14:12:39;;;;;;;3.35;1.00;;;;;;;;;;10431353;28;20139;-77
2022/10/15 14:17:42;;;;;;;1.58;0.68;;;;;;;;;;10429541;28;20117;-77
2022/10/15 14:22:49;;;;;;;1.83;0.90;;;;;;;;;;10429456;28;20065;-76
2022/10/15 14:27:52;;;;;;;3.17;0.98;;;;;;;;;;10428382;28;20037;-76
2022/10/15 14:32:55;;;;;;;1.52;1.10;;;;;;;;;;10425063;28;20042;-76
2022/10/15 14:38:00;;;;;;;0.98;0.65;;;;;;;;;;10432912;28;20029;-76
2022/10/15 14:43:04;;;;;;;1.63;0.80;;;;;;;;;;10426311;28;20338;-76
2022/10/15 14:48:17;;;;;;;2.35;0.70;;;;;;;;;;10427217;28;20160;-77
2022/10/15 14:53:24;;;;;;;1.65;0.70;;;;;;;;;;10434324;28;20281;-77
2022/10/15 14:58:28;;;;;;;1.98;0.82;;;;;;;;;;10423317;28;20033;-77
2022/10/15 15:03:31;;;;;;;0.95;0.60;;;;;;;;;;10426395;28;20044;-77
2022/10/15 15:08:36;;;;;;;1.50;0.80;;;;;;;;;;10421089;28;20410;-76
2022/10/15 15:13:39;;;;;;;2.53;1.10;;;;;;;;;;10428325;28;20037;-76
2022/10/15 15:18:42;;;;;;;3.05;0.98;;;;;;;;;;10430991;28;20055;-75
2022/10/15 15:23:48;;;;;;;1.00;0.90;;;;;;;;;;10434350;28;20043;-77
2022/10/15 15:28:50;;;;;;;5.13;1.00;;;;;;;;;;10433409;28;20048;-76
2022/10/15 15:33:54;;;;;;;1.90;1.20;;;;;;;;;;10432892;28;20033;-78
2022/10/15 15:38:58;;;;;;;2.80;1.07;;;;;;;;;;10423909;28;20513;-77
2022/10/15 15:44:03;;;;;;;3.75;1.30;;;;;;;;;;10427452;28;20513;-77
2022/10/15 15:49:06;;;;;;;1.20;1.08;;;;;;;;;;10433906;28;20143;-78
2022/10/15 15:54:10;;;;;;;2.67;1.08;;;;;;;;;;10425242;28;20045;-78
2022/10/15 15:59:13;;;;;;;1.77;1.00;;;;;;;;;;10417731;28;20520;-76
2022/10/15 16:04:21;;;;;;;2.08;1.30;;;;;;;;;;10428218;28;20051;-77
2022/10/15 16:09:26;;;;;;;4.07;1.20;;;;;;;;;;10419193;28;20033;-76
2022/10/15 16:14:31;;;;;;;2.42;0.70;;;;;;;;;;10421110;28;20076;-77
2022/10/15 16:19:33;;;;;;;1.35;0.95;;;;;;;;;;10429895;28;20049;-77
2022/10/15 16:24:38;;;;;;;5.75;2.95;;;;;;;;;;10422836;28;20065;-76
2022/10/15 16:29:41;;;;;;;5.07;1.48;;;;;;;;;;10421926;28;20127;-75
2022/10/15 16:34:43;;;;;;;1.30;0.80;;;;;;;;;;10427191;28;20060;-77
2022/10/15 16:39:47;;;;;;;2.22;1.17;;;;;;;;;;10433514;28;20060;-76
2022/10/15 16:44:51;;;;;;;2.15;1.02;;;;;;;;;;10439792;28;20036;-77
2022/10/15 16:49:55;;;;;;;3.67;1.42;;;;;;;;;;10417094;28;20075;-77
2022/10/15 16:55:01;;;;;;;3.47;1.25;;;;;;;;;;10422504;28;20470;-76
2022/10/15 17:00:05;;;;;;;1.45;1.02;;;;;;;;;;10418831;28;20057;-75
2022/10/15 17:05:08;;;;;;;2.10;1.23;;;;;;;;;;10420529;28;20578;-75
2022/10/15 17:10:24;;;;;;;4.22;1.60;;;;;;;;;;10420156;28;20134;-76
2022/10/15 17:15:40;;;;;;;5.60;2.15;;;;;;;;;;10417403;28;20087;-76
2022/10/15 17:20:44;;;;;;;11.13;4.70;;;;;;;;;;10416541;28;20068;-78
2022/10/15 17:25:48;;;;;;;10.77;4.63;;;;;;;;;;10420903;28;20620;-76
2022/10/15 17:30:51;;;;;;;5.10;3.00;;;;;;;;;;10430795;28;20116;-77
2022/10/15 17:35:54;;;;;;;7.97;3.37;;;;;;;;;;10428854;28;20041;-77
2022/10/15 17:40:58;;;;;;;7.03;3.55;;;;;;;;;;10435435;28;20311;-78
2022/10/15 17:46:02;;;;;;;7.20;2.75;;;;;;;;;;10435910;28;20068;-77
2022/10/15 17:51:06;;;;;;;6.85;3.13;;;;;;;;;;10438861;28;20099;-77
2022/10/15 17:56:09;;;;;;;;;;;;;;;;;;10442788;28;20056;-79
2022/10/15 18:01:14;;;;;;;4.17;1.87;;;;;;;;;;10435152;28;19925;-77
2022/10/15 18:06:35;;;;;;;3.63;1.77;;;;;;;;;;10436116;28;20307;-76
2022/10/15 18:11:38;;;;;;;5.60;1.98;;;;;;;;;;10429737;28;20382;-75
2022/10/15 18:16:42;;;;;;;5.60;1.70;;;;;;;;;;10437473;28;20033;-77
2022/10/15 18:21:45;;;;;;;3.30;1.50;;;;;;;;;;10407580;28;20303;-77
2022/10/15 18:26:51;;;;;;;4.95;2.35;;;;;;;;;;10424018;28;20434;-75
2022/10/15 18:31:56;;;;;;;4.03;2.03;;;;;;;;;;10422378;28;20522;-77
2022/10/15 18:36:59;;;;;;;6.30;2.00;;;;;;;;;;10408657;28;20033;-78
2022/10/15 18:42:03;;;;;;;6.38;3.00;;;;;;;;;;10428242;28;20095;-77
2022/10/15 18:47:07;;;;;;;6.65;2.80;;;;;;;;;;10424146;28;20040;-79
2022/10/15 18:52:10;;;;;;;6.90;2.53;;;;;;;;;;10423765;28;20049;-77
2022/10/15 18:57:33;;;;;;;7.78;3.10;;;;;;;;;;10423021;28;20052;-76
2022/10/15 19:02:37;;;;;;;4.93;2.40;;;;;;;;;;10421899;28;20041;-78
2022/10/15 19:07:41;;;;;;;5.18;3.13;;;;;;;;;;10411511;28;20119;-76
2022/10/15 19:12:45;;;;;;;6.07;2.95;;;;;;;;;;10434251;28;20096;-76
2022/10/15 19:17:49;;;;;;;6.80;3.22;;;;;;;;;;10426871;28;20102;-76
2022/10/15 19:22:53;;;;;;;7.57;3.50;;;;;;;;;;10428020;28;21727;-77
2022/10/15 19:27:56;;;;;;;6.85;3.28;;;;;;;;;;10429100;28;20098;-76
2022/10/15 19:33:00;;;;;;;9.48;3.17;;;;;;;;;;10423281;28;20033;-76
2022/10/15 19:38:03;;;;;;;5.50;2.35;;;;;;;;;;10424574;28;20550;-78
2022/10/15 19:43:06;;;;;;;8.93;3.10;;;;;;;;;;10430185;28;20550;-75
2022/10/15 19:48:10;;;;;;;;;;;;;;;;;;10436460;28;20074;-75
2022/10/15 19:53:16;;;;;;;7.72;3.50;;;;;;;;;;10431551;28;19925;-75
2022/10/15 19:58:19;;;;;;;6.30;2.90;;;;;;;;;;10434993;28;20123;-76
2022/10/15 20:03:22;;;;;;;6.30;3.07;;;;;;;;;;10430782;28;20057;-76
2022/10/15 20:08:33;;;;;;;6.20;2.70;;;;;;;;;;10432850;28;20072;-76
2022/10/15 20:13:38;;;;;;;7.68;2.88;;;;;;;;;;10431036;28;20497;-76
2022/10/15 20:18:41;;;;;;;8.82;3.38;;;;;;;;;;10429964;28;20517;-76
2022/10/15 20:23:46;;;;;;;5.35;2.55;;;;;;;;;;10434497;28;20067;-76
2022/10/15 20:28:50;;;;;;;5.68;2.83;;;;;;;;;;10429301;28;20061;-75
2022/10/15 20:33:54;;;;;;;6.22;2.60;;;;;;;;;;10426572;28;20645;-77
2022/10/15 20:39:00;;;;;;;5.95;2.60;;;;;;;;;;10433695;28;20116;-76
2022/10/15 20:44:02;;;;;;;6.43;2.60;;;;;;;;;;10391885;28;20723;-77
2022/10/15 20:49:07;;;;;;;5.35;2.35;;;;;;;;;;10378499;28;20049;-77
2022/10/15 20:54:14;;;;;;;4.90;2.70;;;;;;;;;;10393407;28;20414;-77
2022/10/15 20:59:17;;;;;;;8.40;2.53;;;;;;;;;;10395429;28;20079;-77
2022/10/15 21:04:19;;;;;;;7.53;3.27;;;;;;;;;;10396332;28;20038;-75
2022/10/15 21:09:24;;;;;;;6.00;2.55;;;;;;;;;;10406675;28;20156;-76
2022/10/15 21:14:27;;;;;;;6.10;2.25;;;;;;;;;;10403352;28;20041;-76
2022/10/15 21:19:30;;;;;;;6.10;2.70;;;;;;;;;;10408538;28;20148;-76
2022/10/15 21:24:35;;;;;;;5.37;2.30;;;;;;;;;;10385154;28;20144;-75
2022/10/15 21:29:38;;;;;;;2.55;1.40;;;;;;;;;;10400407;28;20373;-74
2022/10/15 21:34:41;;;;;;;7.53;2.55;;;;;;;;;;10403757;28;20167;-73
2022/10/15 21:39:45;;;;;;;4.93;1.97;;;;;;;;;;10403491;28;20040;-74
2022/10/15 21:44:48;;;;;;;8.55;4.10;;;;;;;;;;10381451;28;20495;-74
2022/10/15 21:49:51;;;;;;;4.90;2.20;;;;;;;;;;10395801;28;20444;-76
2022/10/15 21:54:55;;;;;;;5.57;2.72;;;;;;;;;;10402164;28;20049;-75
2022/10/15 21:59:58;;;;;;;7.88;3.20;;;;;;;;;;10402929;28;20045;-75
2022/10/15 22:05:01;;;;;;;5.07;2.90;;;;;;;;;;10398351;28;20052;-76
2022/10/15 22:10:06;;;;;;;5.50;2.80;;;;;;;;;;10395356;28;20043;-75
2022/10/15 22:15:10;;;;;;;4.65;2.33;;;;;;;;;;10399283;28;20056;-74
2022/10/15 22:20:13;;;;;;;4.30;2.08;;;;;;;;;;10395058;28;20128;-76
2022/10/15 22:25:17;;;;;;;4.60;2.33;;;;;;;;;;10399116;28;20037;-74
2022/10/15 22:30:23;;;;;;;4.70;2.35;;;;;;;;;;10394364;28;20455;-74
2022/10/15 22:35:26;;;;;;;4.53;2.38;;;;;;;;;;10398644;28;20083;-74
2022/10/15 22:40:32;;;;;;;5.53;2.40;;;;;;;;;;10397381;28;20053;-76
2022/10/15 22:45:42;;;;;;;4.80;2.25;;;;;;;;;;10394817;28;20152;-76
2022/10/15 22:50:44;;;;;;;5.07;2.30;;;;;;;;;;10400237;28;20048;-75
2022/10/15 22:55:55;;;;;;;4.03;2.38;;;;;;;;;;10394586;28;20046;-75
2022/10/15 23:01:05;;;;;;;4.70;2.53;;;;;;;;;;10391974;28;20108;-76
2022/10/15 23:06:14;;;;;;;7.07;2.30;;;;;;;;;;10391620;28;20450;-74
2022/10/15 23:11:20;;;;;;;3.53;1.70;;;;;;;;;;10389683;28;20041;-75
2022/10/15 23:16:23;;;;;;;2.85;1.83;;;;;;;;;;10376339;28;20045;-75
2022/10/15 23:21:28;;;;;;;4.30;2.33;;;;;;;;;;10394466;28;20033;-75
2022/10/15 23:26:32;;;;;;;3.40;2.03;;;;;;;;;;10395809;28;20049;-74
2022/10/15 23:31:36;;;;;;;5.97;2.50;;;;;;;;;;10393130;28;20181;-75
2022/10/15 23:36:43;;;;;;;4.05;2.03;;;;;;;;;;10388779;28;20050;-74
2022/10/15 23:41:48;;;;;;;3.30;2.08;;;;;;;;;;10401212;28;20063;-75
2022/10/15 23:46:50;;;;;;;6.45;2.17;;;;;;;;;;10393723;28;20367;-74
2022/10/15 23:51:53;;;;;;;3.80;2.22;;;;;;;;;;10389936;28;20202;-76
2022/10/15 23:57:00;;;;;;;4.53;1.92;;;;;;;;;;10391408;28;20377;-77
